Logan, North Dakota
Current Conditions -  °F | °C
As of 11:54 PM on Thursday 27 Nov 2014 (Local Time) from KMOT Reporting Station
Overcast Overcast  
Wind Chill: -4°   Ceiling: 1600
Heat Index: 10°   Visibility: 10mi
Dew Point:   Wind: 10mph
Humidity: 80%   Direction: 90°E
Pressure: 29.9"   Gusts: NA
Location:  48.1414°N, 101.387°W
Report Text: KMOT 280554Z AUTO 09009KT 10SM BKN016 OVC027 M12/M15 A2990 RMK AO2 SLP163 60001 T11221150 11111 21122 411061278 56015
Loading
Personal Weather Stations






























Interactive Weather Map New forecast layout! Learn more

10-Day Weather Forecast

Advertisements
Track Severe Weather on mobile